Hugh R. Sharp — WDC9608 — position and weather

sailwx.info

Track history (hours):
 
Tides and Currents Weather Stations Pressure Air Temp Water Temp Dewpoint Dewpoint Depression Visibility Wind Speed Wind Dir Waves Ship Positions

Oceanographic research ship Hugh R. Sharp (USA)

Ship's website: http://www.ceoe.udel.edu/marine/rvSharp.shtml

Detailed information on ship capabilities available from University of Delaware's Ocean Information Center.

Owner: Warrior & yGulf Navigation Compan, Chickasaw, AL. More information available from US FCC via Universal Licensing System and Coast Guard Vessel Documentation Center.

Last reported at 2017-Sep-21 18:19 UTC. Time now 2017-Sep-23 02:19 UTC.
Position N 41°32' W 070°40'.

Length 40 m; draft 4 m.

Type: Other ship. MMSI: 367063060.

Date/timePositionNaut miles runAvg speedWind from/ knotsBaromVisibWave heightAir tempDewpointWater temp
2017-Sep-21 18:19N 41°32' W 070°40'0 0.0
2017-Sep-21 17:53N 41°32' W 070°40'0 0.0
2017-Sep-21 08:43N 41°32' W 070°40'0 0.0
2017-Sep-21 08:29N 41°32' W 070°40'0 0.0
2017-Sep-21 07:54N 41°32' W 070°40'0 0.0
2017-Sep-21 07:28N 41°32' W 070°40'0 0.0
2017-Sep-21 06:48N 41°32' W 070°40'0 0.0
2017-Sep-21 06:30N 41°32' W 070°40'0 0.0
2017-Sep-21 05:56N 41°32' W 070°40'0 0.0
2017-Sep-21 05:13N 41°32' W 070°40'0 0.0
2017-Sep-21 05:00N 41°32' W 070°40'0 0.0
2017-Sep-21 04:15N 41°32' W 070°40'0 0.0
2017-Sep-19 12:32N 41°32' W 070°40'0 0.0
2017-Sep-19 12:28N 41°32' W 070°40'0 0.0
2017-Sep-19 11:49N 41°32' W 070°40'0 0.0
2017-Sep-19 11:18N 41°32' W 070°40'0 0.0
2017-Sep-19 10:53N 41°32' W 070°40'0 0.0
2017-Sep-19 10:11N 41°32' W 070°40'0 0.0
2017-Sep-19 09:47N 41°32' W 070°40'0 0.0
2017-Sep-19 09:30N 41°32' W 070°40'0 0.0
2017-Sep-18 23:32N 41°32' W 070°40'0 0.0
2017-Sep-18 23:29N 41°32' W 070°40'0 0.0
2017-Sep-18 22:55N 41°32' W 070°40'0 0.0
2017-Sep-18 22:30N 41°32' W 070°40'  
2017-Sep-13 08:26N 40°13' W 067°44'5 5.3
2017-Sep-13 07:30N 40°08' W 067°43'3 6.5
2017-Sep-13 07:00N 40°04' W 067°44'3 6.8
2017-Sep-13 06:31N 40°01' W 067°44'3 6.7
2017-Sep-13 06:01N 39°58' W 067°45'2 4.6
2017-Sep-13 05:30N 39°56' W 067°43'3 5.9
2017-Sep-13 05:00N 39°59' W 067°41'3 6.9
2017-Sep-13 04:31N 40°02' W 067°41'3 6.7
2017-Sep-13 03:59N 40°06' W 067°40'3 6.8
2017-Sep-13 03:29N 40°09' W 067°40'3 7.2
2017-Sep-13 03:00N 40°13' W 067°39'26 2.0
2017-Sep-12 14:09N 39°51' W 067°21'  
Track history (hours):
 
Tides and Currents Weather Stations Pressure Air Temp Water Temp Dewpoint Dewpoint Depression Visibility Wind Speed Wind Dir Waves Ship Positions

Oceanographic research ship Hugh R. Sharp (USA)

Ship's website: http://www.ceoe.udel.edu/marine/rvSharp.shtml

Detailed information on ship capabilities available from University of Delaware's Ocean Information Center.

Owner: Warrior & yGulf Navigation Compan, Chickasaw, AL. More information available from US FCC via Universal Licensing System and Coast Guard Vessel Documentation Center.

Last reported at 2017-Sep-21 18:19 UTC. Time now 2017-Sep-23 02:19 UTC.
Position N 41°32' W 070°40'.

Length 40 m; draft 4 m.

Type: Other ship. MMSI: 367063060.

Date/timePositionNaut miles runAvg speedWind from/ knotsBaromVisibWave heightAir tempDewpointWater temp
2017-Sep-21 18:19N 41°32' W 070°40'0 0.0
2017-Sep-21 17:53N 41°32' W 070°40'0 0.0
2017-Sep-21 08:43N 41°32' W 070°40'0 0.0
2017-Sep-21 08:29N 41°32' W 070°40'0 0.0
2017-Sep-21 07:54N 41°32' W 070°40'0 0.0
2017-Sep-21 07:28N 41°32' W 070°40'0 0.0
2017-Sep-21 06:48N 41°32' W 070°40'0 0.0
2017-Sep-21 06:30N 41°32' W 070°40'0 0.0
2017-Sep-21 05:56N 41°32' W 070°40'0 0.0
2017-Sep-21 05:13N 41°32' W 070°40'0 0.0
2017-Sep-21 05:00N 41°32' W 070°40'0 0.0
2017-Sep-21 04:15N 41°32' W 070°40'0 0.0
2017-Sep-19 12:32N 41°32' W 070°40'0 0.0
2017-Sep-19 12:28N 41°32' W 070°40'0 0.0
2017-Sep-19 11:49N 41°32' W 070°40'0 0.0
2017-Sep-19 11:18N 41°32' W 070°40'0 0.0
2017-Sep-19 10:53N 41°32' W 070°40'0 0.0
2017-Sep-19 10:11N 41°32' W 070°40'0 0.0
2017-Sep-19 09:47N 41°32' W 070°40'0 0.0
2017-Sep-19 09:30N 41°32' W 070°40'0 0.0
2017-Sep-18 23:32N 41°32' W 070°40'0 0.0
2017-Sep-18 23:29N 41°32' W 070°40'0 0.0
2017-Sep-18 22:55N 41°32' W 070°40'0 0.0
2017-Sep-18 22:30N 41°32' W 070°40'  
2017-Sep-13 08:26N 40°13' W 067°44'5 5.3
2017-Sep-13 07:30N 40°08' W 067°43'3 6.5
2017-Sep-13 07:00N 40°04' W 067°44'3 6.8
2017-Sep-13 06:31N 40°01' W 067°44'3 6.7
2017-Sep-13 06:01N 39°58' W 067°45'2 4.6
2017-Sep-13 05:30N 39°56' W 067°43'3 5.9
2017-Sep-13 05:00N 39°59' W 067°41'3 6.9
2017-Sep-13 04:31N 40°02' W 067°41'3 6.7
2017-Sep-13 03:59N 40°06' W 067°40'3 6.8
2017-Sep-13 03:29N 40°09' W 067°40'3 7.2
2017-Sep-13 03:00N 40°13' W 067°39'26 2.0
2017-Sep-12 14:09N 39°51' W 067°21'  

Dump ship's entire track history